createdAt,value
2017-10-30T00:00:24.942Z,5.6
2017-10-30T00:01:27.311Z,5.6
2017-10-30T00:02:29.678Z,5.6
2017-10-30T00:03:32.047Z,5.6
2017-10-30T00:04:34.424Z,5.5
2017-10-30T00:05:36.791Z,5.5
2017-10-30T00:06:39.182Z,5.5
2017-10-30T00:07:41.876Z,5.5
2017-10-30T00:08:44.605Z,5.5
2017-10-30T00:09:46.970Z,5.5
2017-10-30T00:10:49.352Z,5.5
2017-10-30T00:11:51.715Z,5.5
2017-10-30T00:12:54.081Z,5.5
2017-10-30T00:13:56.449Z,5.5
2017-10-30T00:14:58.825Z,5.5
2017-10-30T00:16:01.180Z,5.5
2017-10-30T00:17:03.554Z,5.5
2017-10-30T00:18:05.917Z,5.5
2017-10-30T00:19:08.285Z,5.5
2017-10-30T00:20:10.657Z,5.5
2017-10-30T00:21:13.032Z,5.5
2017-10-30T00:22:15.387Z,5.5
2017-10-30T00:23:17.759Z,5.5
2017-10-30T00:24:20.120Z,5.5
2017-10-30T00:25:22.494Z,5.5
2017-10-30T00:26:24.848Z,5.4
2017-10-30T00:27:27.225Z,5.4
2017-10-30T00:28:29.588Z,5.4
2017-10-30T00:29:31.967Z,5.4
2017-10-30T00:30:34.332Z,5.4
2017-10-30T00:31:36.688Z,5.4
2017-10-30T00:32:39.056Z,5.4
2017-10-30T00:33:41.429Z,5.4
2017-10-30T00:34:43.796Z,5.4
2017-10-30T00:35:46.157Z,5.4
2017-10-30T00:36:48.551Z,5.4
2017-10-30T00:37:50.893Z,5.4
2017-10-30T00:38:53.261Z,5.4
2017-10-30T00:39:55.641Z,5.4
2017-10-30T00:40:58.013Z,5.4
2017-10-30T00:42:00.725Z,5.4
2017-10-30T00:43:03.104Z,5.4
2017-10-30T00:44:05.468Z,5.4
2017-10-30T00:45:07.826Z,5.4
2017-10-30T00:46:10.196Z,5.4
2017-10-30T00:47:12.904Z,5.4
2017-10-30T00:48:15.279Z,5.4
2017-10-30T00:49:17.648Z,5.4
2017-10-30T00:50:20.010Z,5.4
2017-10-30T00:51:22.373Z,5.4
2017-10-30T00:52:24.746Z,5.5
2017-10-30T00:53:27.108Z,5.5
2017-10-30T00:54:29.482Z,5.5
2017-10-30T00:55:31.847Z,5.5
2017-10-30T00:56:34.566Z,5.5
2017-10-30T00:57:36.950Z,5.5
2017-10-30T00:58:39.334Z,5.4
2017-10-30T00:59:42.056Z,5.4
2017-10-30T01:00:44.417Z,5.4
2017-10-30T01:01:46.787Z,5.4
2017-10-30T01:02:49.153Z,5.4
2017-10-30T01:03:51.521Z,5.4
2017-10-30T01:04:53.886Z,5.4
2017-10-30T01:05:56.264Z,5.4
2017-10-30T01:06:58.634Z,5.4
2017-10-30T01:08:01.008Z,5.4
2017-10-30T01:09:03.377Z,5.4
2017-10-30T01:10:05.744Z,5.4
2017-10-30T01:11:08.111Z,5.4
2017-10-30T01:12:10.854Z,5.4
2017-10-30T01:13:13.568Z,5.4
2017-10-30T01:14:15.947Z,5.4
2017-10-30T01:15:18.297Z,5.4
2017-10-30T01:16:20.668Z,5.4
2017-10-30T01:17:23.035Z,5.4
2017-10-30T01:18:25.403Z,5.3
2017-10-30T01:19:27.768Z,5.3
2017-10-30T01:20:30.140Z,5.3
2017-10-30T01:21:32.520Z,5.3
2017-10-30T01:22:34.884Z,5.3
2017-10-30T01:23:37.253Z,5.3
2017-10-30T01:24:39.622Z,5.3
2017-10-30T01:25:41.988Z,5.3
2017-10-30T01:26:44.360Z,5.3
2017-10-30T01:27:46.733Z,5.3
2017-10-30T01:28:49.090Z,5.3
2017-10-30T01:29:51.450Z,5.3
2017-10-30T01:30:53.821Z,5.4
2017-10-30T01:31:56.184Z,5.4
2017-10-30T01:32:58.549Z,5.4
2017-10-30T01:34:00.921Z,5.4
2017-10-30T01:35:03.295Z,5.4
2017-10-30T01:36:05.657Z,5.4
2017-10-30T01:37:08.018Z,5.4
2017-10-30T01:38:10.746Z,5.4
2017-10-30T01:39:13.109Z,5.4
2017-10-30T01:40:15.465Z,5.4
2017-10-30T01:41:17.840Z,5.4
2017-10-30T01:42:20.203Z,5.4
2017-10-30T01:43:22.920Z,5.4
2017-10-30T01:44:25.295Z,5.4
2017-10-30T01:45:27.662Z,5.3
2017-10-30T01:46:30.030Z,5.4
2017-10-30T01:47:32.437Z,5.4
2017-10-30T01:48:34.770Z,5.4
2017-10-30T01:49:37.135Z,5.3
2017-10-30T01:50:39.502Z,5.4
2017-10-30T01:51:41.865Z,5.4
2017-10-30T01:52:44.248Z,5.4
2017-10-30T01:53:46.982Z,5.4
2017-10-30T01:54:49.333Z,5.3
2017-10-30T01:55:51.707Z,5.4
2017-10-30T01:56:54.073Z,5.4
2017-10-30T01:57:56.437Z,5.4
2017-10-30T01:58:58.835Z,5.4
2017-10-30T02:00:01.186Z,5.3
2017-10-30T02:01:03.552Z,5.3
2017-10-30T02:02:05.930Z,5.3
2017-10-30T02:03:08.300Z,5.3
2017-10-30T02:04:10.657Z,5.3
2017-10-30T02:05:13.024Z,5.3
2017-10-30T02:06:15.403Z,5.3
2017-10-30T02:07:18.117Z,5.2
2017-10-30T02:08:20.477Z,5.3
2017-10-30T02:09:22.845Z,5.3
2017-10-30T02:10:25.213Z,5.3
2017-10-30T02:11:27.593Z,5.3
2017-10-30T02:12:29.959Z,5.2
2017-10-30T02:13:32.310Z,5.2
2017-10-30T02:14:34.683Z,5.2
2017-10-30T02:15:37.056Z,5.2
2017-10-30T02:16:39.429Z,5.2
2017-10-30T02:17:42.155Z,5.2
2017-10-30T02:18:44.505Z,5.2
2017-10-30T02:19:46.877Z,5.2
2017-10-30T02:20:49.257Z,5.3
2017-10-30T02:21:51.631Z,5.2
2017-10-30T02:22:54.354Z,5.2
2017-10-30T02:23:56.718Z,5.2
2017-10-30T02:24:59.085Z,5.2
2017-10-30T02:26:01.458Z,5.2
2017-10-30T02:27:03.821Z,5.2
2017-10-30T02:28:06.177Z,5.2
2017-10-30T02:29:08.901Z,5.1
2017-10-30T02:30:11.291Z,5.2
2017-10-30T02:31:14.016Z,5.2
2017-10-30T02:32:16.385Z,5.2
2017-10-30T02:33:18.750Z,5.2
2017-10-30T02:34:21.491Z,5.2
2017-10-30T02:35:24.222Z,5.2
2017-10-30T02:36:26.589Z,5.2
2017-10-30T02:37:28.952Z,5.2
2017-10-30T02:38:31.325Z,5.2
2017-10-30T02:39:33.695Z,5.2
2017-10-30T02:40:36.430Z,5.1
2017-10-30T02:41:38.799Z,5.1
2017-10-30T02:42:41.166Z,5.1
2017-10-30T02:43:43.537Z,5.1
2017-10-30T02:44:45.899Z,5.1
2017-10-30T02:45:48.267Z,5.1
2017-10-30T02:46:50.650Z,5.1
2017-10-30T02:47:53.020Z,5.1
2017-10-30T02:48:55.383Z,5.1
2017-10-30T02:49:57.747Z,5.1
2017-10-30T02:51:00.119Z,5.1
2017-10-30T02:52:02.485Z,5.1
2017-10-30T02:53:04.862Z,5.1
2017-10-30T02:54:07.224Z,5.1
2017-10-30T02:55:09.964Z,5.1
2017-10-30T02:56:12.681Z,5.1
2017-10-30T02:57:15.046Z,5.1
2017-10-30T02:58:17.414Z,5
2017-10-30T02:59:19.780Z,5
2017-10-30T03:00:22.144Z,5
2017-10-30T03:01:24.522Z,5.1
2017-10-30T03:02:26.887Z,5.1
2017-10-30T03:03:29.247Z,5.1
2017-10-30T03:04:31.610Z,5.1
2017-10-30T03:05:33.985Z,5.1
2017-10-30T03:06:36.351Z,5.1
2017-10-30T03:07:38.723Z,5.1
2017-10-30T03:08:41.089Z,5.2
2017-10-30T03:09:43.458Z,5.1
2017-10-30T03:10:46.190Z,5.1
2017-10-30T03:11:48.558Z,5.1
2017-10-30T03:12:50.927Z,5.1
2017-10-30T03:13:53.287Z,5.1
2017-10-30T03:14:55.656Z,5
2017-10-30T03:15:58.022Z,5
2017-10-30T03:17:01.110Z,5
2017-10-30T03:18:03.471Z,5
2017-10-30T03:19:06.189Z,5.1
2017-10-30T03:20:08.575Z,5.1
2017-10-30T03:21:10.934Z,5.1
2017-10-30T03:22:13.294Z,5
2017-10-30T03:23:16.002Z,5
2017-10-30T03:24:18.372Z,5
2017-10-30T03:25:20.744Z,5
2017-10-30T03:26:23.133Z,5
2017-10-30T03:27:25.474Z,4.9
2017-10-30T03:28:27.844Z,4.9
2017-10-30T03:29:30.228Z,4.9
2017-10-30T03:30:32.598Z,4.9
2017-10-30T03:31:34.952Z,4.9
2017-10-30T03:32:37.326Z,4.9
2017-10-30T03:33:40.045Z,4.9
2017-10-30T03:34:42.398Z,4.9
2017-10-30T03:35:44.788Z,4.9
2017-10-30T03:36:47.511Z,4.9
2017-10-30T03:37:49.887Z,4.9
2017-10-30T03:38:52.251Z,4.9
2017-10-30T03:39:54.620Z,4.9
2017-10-30T03:40:56.990Z,4.9
2017-10-30T03:41:59.367Z,4.9
2017-10-30T03:43:01.727Z,4.9
2017-10-30T03:44:04.092Z,4.8
2017-10-30T03:45:06.450Z,4.8
2017-10-30T03:46:08.820Z,4.8
2017-10-30T03:47:11.189Z,4.8
2017-10-30T03:48:13.557Z,4.9
2017-10-30T03:49:15.931Z,4.9
2017-10-30T03:50:18.295Z,4.9
2017-10-30T03:51:20.666Z,4.9
2017-10-30T03:52:23.063Z,4.9
2017-10-30T03:53:25.390Z,4.9
2017-10-30T03:54:27.789Z,4.8
2017-10-30T03:55:30.159Z,4.8
2017-10-30T03:56:32.528Z,4.8
2017-10-30T03:57:34.896Z,4.8
2017-10-30T03:58:37.265Z,4.8
2017-10-30T03:59:39.619Z,4.8
2017-10-30T04:00:41.998Z,4.8
2017-10-30T04:01:44.364Z,4.9
2017-10-30T04:02:46.722Z,4.9
2017-10-30T04:03:49.106Z,4.9
2017-10-30T04:04:51.463Z,4.9
2017-10-30T04:05:53.828Z,4.9
2017-10-30T04:06:56.201Z,4.8
2017-10-30T04:07:58.578Z,4.9
2017-10-30T04:09:00.940Z,4.9
2017-10-30T04:10:03.304Z,4.9
2017-10-30T04:11:05.668Z,4.8
2017-10-30T04:12:08.045Z,4.8
2017-10-30T04:13:10.403Z,4.8
2017-10-30T04:14:12.778Z,4.8
2017-10-30T04:15:15.130Z,4.8
2017-10-30T04:16:17.511Z,4.8
2017-10-30T04:17:19.859Z,4.8
2017-10-30T04:18:22.227Z,4.8
2017-10-30T04:19:24.586Z,4.8
2017-10-30T04:20:27.313Z,4.7
2017-10-30T04:21:29.681Z,4.7
2017-10-30T04:22:32.043Z,4.8
2017-10-30T04:23:34.407Z,4.7
2017-10-30T04:24:37.484Z,4.7
2017-10-30T04:25:39.851Z,4.7
2017-10-30T04:26:42.221Z,4.7
2017-10-30T04:27:44.581Z,4.7
2017-10-30T04:28:46.948Z,4.7
2017-10-30T04:29:49.316Z,4.7
2017-10-30T04:30:51.686Z,4.7
2017-10-30T04:31:54.054Z,4.7
2017-10-30T04:32:56.808Z,4.7
2017-10-30T04:33:59.548Z,4.7
2017-10-30T04:35:02.633Z,4.7
2017-10-30T04:36:05.007Z,4.7
2017-10-30T04:37:07.373Z,4.7
2017-10-30T04:38:10.124Z,4.7
2017-10-30T04:39:12.488Z,4.7
2017-10-30T04:40:14.847Z,4.7
2017-10-30T04:41:17.222Z,4.7
2017-10-30T04:42:19.584Z,4.7
2017-10-30T04:43:21.958Z,4.7
2017-10-30T04:44:24.678Z,4.7
2017-10-30T04:45:27.047Z,4.6
2017-10-30T04:46:29.408Z,4.7
2017-10-30T04:47:31.778Z,4.7
2017-10-30T04:48:34.145Z,4.7
2017-10-30T04:49:36.508Z,4.7
2017-10-30T04:50:38.891Z,4.7
2017-10-30T04:51:41.255Z,4.7
2017-10-30T04:52:43.614Z,4.7
2017-10-30T04:53:45.997Z,4.6
2017-10-30T04:54:48.351Z,4.6
2017-10-30T04:55:50.727Z,4.6
2017-10-30T04:56:53.086Z,4.7
2017-10-30T04:57:55.443Z,4.7
2017-10-30T04:58:57.816Z,4.7
2017-10-30T05:00:00.194Z,4.7
2017-10-30T05:01:02.559Z,4.7
2017-10-30T05:02:04.931Z,4.6
2017-10-30T05:03:07.644Z,4.7
2017-10-30T05:04:10.016Z,4.7
2017-10-30T05:05:12.412Z,4.7
2017-10-30T05:06:14.774Z,4.7
2017-10-30T05:07:17.134Z,4.7
2017-10-30T05:08:19.510Z,4.7
2017-10-30T05:09:22.566Z,4.7
2017-10-30T05:10:24.929Z,4.7
2017-10-30T05:11:27.647Z,4.7
2017-10-30T05:12:30.014Z,4.7
2017-10-30T05:13:32.380Z,4.7
2017-10-30T05:14:34.760Z,4.7
2017-10-30T05:15:37.120Z,4.7
2017-10-30T05:16:39.500Z,4.7
2017-10-30T05:17:41.865Z,4.7
2017-10-30T05:18:44.232Z,4.7
2017-10-30T05:19:46.603Z,4.7
2017-10-30T05:20:49.019Z,4.7
2017-10-30T05:21:51.388Z,4.7
2017-10-30T05:22:53.766Z,4.7
2017-10-30T05:23:56.109Z,4.6
2017-10-30T05:24:58.480Z,4.7
2017-10-30T05:26:01.212Z,4.7
2017-10-30T05:27:03.578Z,4.7
2017-10-30T05:28:05.941Z,4.7
2017-10-30T05:29:08.653Z,4.7
2017-10-30T05:30:11.024Z,4.7
2017-10-30T05:31:13.375Z,4.7
2017-10-30T05:32:16.145Z,4.6
2017-10-30T05:33:18.512Z,4.6
2017-10-30T05:34:20.883Z,4.6
2017-10-30T05:35:23.589Z,4.6
2017-10-30T05:36:25.953Z,4.6
2017-10-30T05:37:28.313Z,4.6
2017-10-30T05:38:30.693Z,4.6
2017-10-30T05:39:33.408Z,4.6
2017-10-30T05:40:36.124Z,4.6
2017-10-30T05:41:38.842Z,4.6
2017-10-30T05:42:41.220Z,4.6
2017-10-30T05:43:43.582Z,4.6
2017-10-30T05:44:46.306Z,4.6
2017-10-30T05:45:48.673Z,4.6
2017-10-30T05:46:51.039Z,4.6
2017-10-30T05:47:53.415Z,4.6
2017-10-30T05:48:55.776Z,4.5
2017-10-30T05:49:58.138Z,4.6
2017-10-30T05:51:00.854Z,4.6
2017-10-30T05:52:03.221Z,4.6
2017-10-30T05:53:05.584Z,4.6
2017-10-30T05:54:07.948Z,4.6
2017-10-30T05:55:12.515Z,4.6
2017-10-30T05:56:15.011Z,4.6
2017-10-30T05:57:17.384Z,4.6
2017-10-30T05:58:19.769Z,4.6
2017-10-30T05:59:22.133Z,4.7
2017-10-30T06:00:24.505Z,4.7
2017-10-30T06:01:26.874Z,4.7
2017-10-30T06:02:29.244Z,4.7
2017-10-30T06:03:31.616Z,4.7
2017-10-30T06:04:34.330Z,4.7
2017-10-30T06:05:36.708Z,4.6
2017-10-30T06:06:39.137Z,4.6
2017-10-30T06:07:41.828Z,4.6
2017-10-30T06:08:44.201Z,4.6
2017-10-30T06:09:46.582Z,4.6
2017-10-30T06:10:48.946Z,4.6
2017-10-30T06:11:51.321Z,4.6
2017-10-30T06:12:54.045Z,4.6
2017-10-30T06:13:56.396Z,4.6
2017-10-30T06:14:58.773Z,4.6
2017-10-30T06:16:01.143Z,4.6
2017-10-30T06:17:05.316Z,4.5
2017-10-30T06:18:08.129Z,4.6
2017-10-30T06:19:10.504Z,4.5
2017-10-30T06:20:12.880Z,4.5
2017-10-30T06:21:15.258Z,4.5
2017-10-30T06:22:17.618Z,4.5
2017-10-30T06:23:20.349Z,4.5
2017-10-30T06:24:23.277Z,4.5
2017-10-30T06:25:25.648Z,4.5
2017-10-30T06:26:28.153Z,4.5
2017-10-30T06:27:30.890Z,4.5
2017-10-30T06:28:33.262Z,4.5
2017-10-30T06:29:35.634Z,4.5
2017-10-30T06:30:38.745Z,4.5
2017-10-30T06:31:41.108Z,4.6
2017-10-30T06:32:43.608Z,4.6
2017-10-30T06:33:45.969Z,4.6
2017-10-30T06:34:48.983Z,4.6
2017-10-30T06:35:51.350Z,4.6
2017-10-30T06:36:54.072Z,4.6
2017-10-30T06:37:56.425Z,4.6
2017-10-30T06:38:58.990Z,4.6
2017-10-30T06:40:01.771Z,4.6
2017-10-30T06:41:04.147Z,4.6
2017-10-30T06:42:06.548Z,4.7
2017-10-30T06:43:09.725Z,4.7
2017-10-30T06:44:12.096Z,4.7
2017-10-30T06:45:14.478Z,4.6
2017-10-30T06:46:17.588Z,4.6
2017-10-30T06:47:19.953Z,4.6
2017-10-30T06:48:22.992Z,4.6
2017-10-30T06:49:25.575Z,4.6
2017-10-30T06:50:27.989Z,4.6
2017-10-30T06:51:30.358Z,4.6
2017-10-30T06:52:33.939Z,4.7
2017-10-30T06:53:36.300Z,4.7
2017-10-30T06:54:38.677Z,4.7
2017-10-30T06:55:41.420Z,4.8
2017-10-30T06:56:43.799Z,4.8
2017-10-30T06:57:46.181Z,4.8
2017-10-30T06:58:48.554Z,4.8
2017-10-30T06:59:50.926Z,4.9
2017-10-30T07:00:53.283Z,4.9
2017-10-30T07:01:55.651Z,4.9
2017-10-30T07:02:58.019Z,5
2017-10-30T07:04:01.411Z,5.1
2017-10-30T07:05:04.166Z,5.2
2017-10-30T07:06:06.519Z,5.2
2017-10-30T07:07:09.591Z,5.2
2017-10-30T07:08:12.113Z,5.3
2017-10-30T07:09:14.553Z,5.4
2017-10-30T07:10:16.963Z,5.4
2017-10-30T07:11:19.327Z,5.5
2017-10-30T07:12:21.705Z,5.5
2017-10-30T07:13:24.090Z,5.4
2017-10-30T07:14:26.446Z,5.4
2017-10-30T07:15:28.960Z,5.5
2017-10-30T07:16:31.324Z,5.4
2017-10-30T07:17:33.692Z,5.4
2017-10-30T07:18:36.071Z,5.4
2017-10-30T07:19:38.439Z,5.5
2017-10-30T07:20:40.974Z,5.7
2017-10-30T07:21:43.364Z,5.8
2017-10-30T07:22:45.738Z,5.9
2017-10-30T07:23:48.451Z,5.9
2017-10-30T07:24:50.825Z,5.9
2017-10-30T07:25:53.179Z,5.9
2017-10-30T07:26:55.729Z,6
2017-10-30T07:27:58.143Z,6.1
2017-10-30T07:29:00.507Z,6.1
2017-10-30T07:30:03.246Z,6.2
2017-10-30T07:31:05.613Z,6.3
2017-10-30T07:32:08.547Z,6.3
2017-10-30T07:33:10.928Z,6.4
2017-10-30T07:34:13.291Z,6.5
2017-10-30T07:35:15.658Z,6.5
2017-10-30T07:36:18.031Z,6.5
2017-10-30T07:37:20.395Z,6.3
2017-10-30T07:38:22.771Z,6.1
2017-10-30T07:39:25.135Z,6.1
2017-10-30T07:40:27.521Z,6.1
2017-10-30T07:41:30.280Z,6.3
2017-10-30T07:42:32.617Z,6.4
2017-10-30T07:43:34.989Z,6.4
2017-10-30T07:44:37.366Z,6.3
2017-10-30T07:45:39.733Z,6.2
2017-10-30T07:46:42.116Z,6.1
2017-10-30T07:47:44.488Z,6
2017-10-30T07:48:46.852Z,6
2017-10-30T07:49:49.233Z,5.8
2017-10-30T07:50:51.606Z,5.9
2017-10-30T07:51:53.980Z,6
2017-10-30T07:52:56.348Z,6.2
2017-10-30T07:53:58.700Z,6.3
2017-10-30T07:55:01.071Z,6.4
2017-10-30T07:56:03.447Z,6.6
2017-10-30T07:57:05.829Z,6.7
2017-10-30T07:58:08.212Z,6.8
2017-10-30T07:59:10.571Z,6.9
2017-10-30T08:00:12.946Z,6.9
2017-10-30T08:01:15.309Z,7.1
2017-10-30T08:02:17.680Z,7.2
2017-10-30T08:03:20.059Z,7.3
2017-10-30T08:04:22.441Z,7.3
2017-10-30T08:05:24.793Z,7.5
2017-10-30T08:06:27.164Z,7.6
2017-10-30T08:07:29.538Z,7.6
2017-10-30T08:08:32.289Z,7.5
2017-10-30T08:09:34.677Z,7.7
2017-10-30T08:10:37.045Z,8
2017-10-30T08:11:39.421Z,8.1
2017-10-30T08:12:41.804Z,8.2
2017-10-30T08:13:44.179Z,8.1
2017-10-30T08:14:46.551Z,8.1
2017-10-30T08:15:48.920Z,8.1
2017-10-30T08:16:51.651Z,8
2017-10-30T08:17:54.040Z,8.1
2017-10-30T08:18:56.408Z,8.3
2017-10-30T08:19:58.786Z,8.2
2017-10-30T08:21:01.166Z,8.3
2017-10-30T08:22:03.543Z,8.3
2017-10-30T08:23:05.927Z,8.5
2017-10-30T08:24:08.303Z,8.7
2017-10-30T08:25:11.012Z,8.8
2017-10-30T08:26:13.403Z,8.9
2017-10-30T08:27:15.787Z,9
2017-10-30T08:28:18.169Z,8.8
2017-10-30T08:29:20.539Z,8.8
2017-10-30T08:30:22.917Z,8.8
2017-10-30T08:31:25.293Z,9.1
2017-10-30T08:32:27.674Z,9.2
2017-10-30T08:33:30.045Z,9.3
2017-10-30T08:34:32.786Z,9.5
2017-10-30T08:35:35.156Z,9.2
2017-10-30T08:36:37.544Z,9.4
2017-10-30T08:37:39.942Z,9.4
2017-10-30T08:38:42.309Z,9.7
2017-10-30T08:39:44.692Z,9.8
2017-10-30T08:40:47.073Z,9.6
2017-10-30T08:41:49.792Z,9.7
2017-10-30T08:42:52.180Z,9.6
2017-10-30T08:43:54.905Z,9.5
2017-10-30T08:44:57.291Z,9.6
2017-10-30T08:45:59.678Z,9.5
2017-10-30T08:47:02.055Z,9.6
2017-10-30T08:48:04.783Z,9.8
2017-10-30T08:49:07.548Z,9.8
2017-10-30T08:50:09.912Z,9.8
2017-10-30T08:51:12.313Z,9.6
2017-10-30T08:52:14.693Z,9.6
2017-10-30T08:53:17.078Z,9.8
2017-10-30T08:54:19.462Z,9.9
2017-10-30T08:55:21.842Z,9.9
2017-10-30T08:56:24.218Z,9.8
2017-10-30T08:57:26.608Z,10
2017-10-30T08:58:28.998Z,10
2017-10-30T08:59:31.374Z,10.2
2017-10-30T09:00:33.790Z,10.1
2017-10-30T09:01:36.175Z,10
2017-10-30T09:02:38.541Z,10.1
2017-10-30T09:03:41.309Z,10.3
2017-10-30T09:04:43.694Z,10.3
2017-10-30T09:05:46.075Z,10.4
2017-10-30T09:06:48.468Z,10.3
2017-10-30T09:07:51.185Z,10.6
2017-10-30T09:08:53.575Z,10.5
2017-10-30T09:09:55.978Z,10.4
2017-10-30T09:10:58.355Z,10.5
2017-10-30T09:14:07.693Z,10.7
2017-10-30T09:15:10.077Z,10.6
2017-10-30T09:16:12.478Z,10.9
2017-10-30T09:17:15.206Z,10.8
2017-10-30T09:18:17.585Z,10.8
2017-10-30T09:19:19.970Z,10.7
2017-10-30T09:20:22.355Z,10.9
2017-10-30T09:21:24.739Z,10.9
2017-10-30T09:22:27.825Z,10.6
2017-10-30T09:23:30.552Z,10.7
2017-10-30T09:24:32.960Z,10.8
2017-10-30T09:25:35.325Z,10.8
2017-10-30T09:26:38.068Z,10.9
2017-10-30T09:27:40.449Z,10.9
2017-10-30T09:28:42.829Z,11.1
2017-10-30T09:29:45.213Z,10.9
2017-10-30T09:30:47.600Z,10.9
2017-10-30T09:31:49.987Z,11.1
2017-10-30T09:32:52.375Z,10.9
2017-10-30T09:33:54.762Z,11.1
2017-10-30T09:34:57.153Z,11.4
2017-10-30T09:35:59.544Z,11.5
2017-10-30T09:37:01.924Z,11.4
2017-10-30T09:38:04.309Z,11.7
2017-10-30T09:39:06.699Z,11.6
2017-10-30T09:40:09.087Z,11.2
2017-10-30T09:41:11.539Z,11.4
2017-10-30T09:42:13.929Z,11.3
2017-10-30T09:43:16.314Z,11.6
2017-10-30T09:44:18.700Z,11.5
2017-10-30T09:45:21.084Z,11.7
2017-10-30T09:46:23.470Z,11.5
2017-10-30T09:47:26.209Z,11.4
2017-10-30T09:48:28.596Z,11.6
2017-10-30T09:49:30.983Z,11.4
2017-10-30T09:50:33.380Z,11.6
2017-10-30T09:51:35.763Z,11.7
2017-10-30T09:52:38.154Z,11.8
2017-10-30T09:53:40.924Z,11.9
2017-10-30T09:54:43.326Z,11.8
2017-10-30T09:55:45.713Z,11.6
2017-10-30T09:56:48.100Z,11.7
2017-10-30T09:57:50.485Z,11.8
2017-10-30T09:58:52.899Z,11.5
2017-10-30T09:59:55.280Z,11.5
2017-10-30T10:00:57.680Z,11.9
2017-10-30T10:02:00.077Z,12.1
2017-10-30T10:03:02.694Z,11.8
2017-10-30T10:04:05.086Z,12.3
2017-10-30T10:05:07.465Z,12.1
2017-10-30T10:06:09.868Z,11.7
2017-10-30T10:07:12.255Z,11.8
2017-10-30T10:08:14.968Z,12
2017-10-30T10:09:17.371Z,12
2017-10-30T10:10:20.154Z,12.1
2017-10-30T10:11:22.543Z,12.2
2017-10-30T10:12:25.276Z,12.2
2017-10-30T10:13:27.899Z,12.1
2017-10-30T10:14:30.277Z,12
2017-10-30T10:15:32.681Z,12
2017-10-30T10:16:35.064Z,12.3
2017-10-30T10:17:37.483Z,12.4
2017-10-30T10:18:40.223Z,12.7
2017-10-30T10:19:43.360Z,12.4
2017-10-30T10:20:45.752Z,12
2017-10-30T10:21:48.149Z,12.1
2017-10-30T10:22:50.543Z,12
2017-10-30T10:23:52.930Z,12.1
2017-10-30T10:24:55.709Z,12.3
2017-10-30T10:25:58.083Z,12.1
2017-10-30T10:27:00.467Z,11.8
2017-10-30T10:28:03.085Z,11.7
2017-10-30T10:29:05.492Z,11.6
2017-10-30T10:30:07.862Z,11.7
2017-10-30T10:31:10.249Z,12
2017-10-30T10:32:12.882Z,12.2
2017-10-30T10:33:15.266Z,12.2
2017-10-30T10:34:17.643Z,12.3
2017-10-30T10:35:20.048Z,12
2017-10-30T10:36:22.430Z,11.9
2017-10-30T10:37:24.953Z,12.1
2017-10-30T10:38:27.339Z,12.2
2017-10-30T10:39:29.725Z,12.6
2017-10-30T10:40:32.115Z,12.4
2017-10-30T10:41:34.863Z,12.5
2017-10-30T10:42:37.248Z,12.2
2017-10-30T10:43:39.634Z,12.8
2017-10-30T10:44:42.028Z,12.9
2017-10-30T10:45:44.498Z,12.8
2017-10-30T10:46:46.898Z,12.6
2017-10-30T10:47:49.286Z,12.1
2017-10-30T10:48:51.656Z,12.5
2017-10-30T10:49:54.167Z,12.8
2017-10-30T10:50:56.554Z,12.6
2017-10-30T10:51:58.935Z,12.5
2017-10-30T10:53:01.412Z,12.5
2017-10-30T10:54:03.796Z,12.3
2017-10-30T10:55:06.176Z,12
2017-10-30T10:56:08.580Z,12.3
2017-10-30T10:57:10.962Z,12.5
2017-10-30T10:58:13.355Z,12.6
2017-10-30T10:59:15.745Z,12.9
2017-10-30T11:00:18.142Z,12.8
2017-10-30T11:01:20.525Z,12.9
2017-10-30T11:02:22.914Z,13.1
2017-10-30T11:03:25.463Z,12.9
2017-10-30T11:04:27.927Z,13.1
2017-10-30T11:05:30.533Z,12.9
2017-10-30T11:06:32.915Z,12.9
2017-10-30T11:07:35.303Z,12.7
2017-10-30T11:08:37.689Z,12.5
2017-10-30T11:09:40.076Z,12.8
2017-10-30T11:10:42.823Z,12.8
2017-10-30T11:11:45.215Z,12.6
2017-10-30T11:12:47.605Z,12.8
2017-10-30T11:13:50.002Z,13
2017-10-30T11:14:52.408Z,12.8
2017-10-30T11:15:54.791Z,12.7
2017-10-30T11:16:57.178Z,12.7
2017-10-30T11:17:59.561Z,12.9
2017-10-30T11:19:01.956Z,12.5
2017-10-30T11:20:04.686Z,12.5
2017-10-30T11:21:07.451Z,12.6
2017-10-30T11:22:09.839Z,12.7
2017-10-30T11:23:12.579Z,12.8
2017-10-30T11:24:14.989Z,12.5
2017-10-30T11:25:17.377Z,12.6
2017-10-30T11:26:20.114Z,12.4
2017-10-30T11:27:22.503Z,12.6
2017-10-30T11:28:24.892Z,12.5
2017-10-30T11:29:27.281Z,12.7
2017-10-30T11:30:30.025Z,12.7
2017-10-30T11:31:32.421Z,13
2017-10-30T11:32:34.801Z,13.1
2017-10-30T11:33:37.185Z,13.1
2017-10-30T11:34:39.577Z,13
2017-10-30T11:35:41.972Z,12.9
2017-10-30T11:36:44.364Z,12.6
2017-10-30T11:37:46.765Z,12
2017-10-30T11:38:49.136Z,12.1
2017-10-30T11:39:51.527Z,12.2
2017-10-30T11:40:53.914Z,12.5
2017-10-30T11:41:56.298Z,12.7
2017-10-30T11:42:58.688Z,12.6
2017-10-30T11:44:01.079Z,12.5
2017-10-30T11:45:03.816Z,12.3
2017-10-30T11:46:06.205Z,12.1
2017-10-30T11:47:08.592Z,12.3
2017-10-30T11:48:10.961Z,12
2017-10-30T11:49:13.363Z,11.6
2017-10-30T11:50:15.744Z,11.6
2017-10-30T11:51:18.139Z,11.6
2017-10-30T11:52:20.521Z,11.4
2017-10-30T11:53:22.910Z,11.1
2017-10-30T11:54:25.298Z,11.1
2017-10-30T11:55:27.688Z,11.1
2017-10-30T11:56:30.269Z,10.9
2017-10-30T11:57:32.653Z,11
2017-10-30T11:58:35.028Z,11.2
2017-10-30T11:59:37.419Z,11
2017-10-30T12:00:39.800Z,10.8
2017-10-30T12:01:42.176Z,10.7
2017-10-30T12:02:44.572Z,10.8
2017-10-30T12:03:47.648Z,11
2017-10-30T12:04:50.043Z,11.1
2017-10-30T12:05:52.431Z,11.6
2017-10-30T12:06:54.814Z,11.8
2017-10-30T12:07:57.191Z,11.5
2017-10-30T12:08:59.579Z,11.2
2017-10-30T12:10:01.956Z,11.2
2017-10-30T12:11:04.353Z,11.4
2017-10-30T12:12:06.717Z,11.4
2017-10-30T12:13:09.452Z,11.4
2017-10-30T12:14:11.850Z,11.1
2017-10-30T12:15:14.225Z,10.9
2017-10-30T12:16:16.610Z,10.8
2017-10-30T12:17:18.987Z,10.9
2017-10-30T12:18:21.375Z,11
2017-10-30T12:19:24.125Z,11.3
2017-10-30T12:20:26.513Z,11.4
2017-10-30T12:21:28.887Z,11.4
2017-10-30T12:22:31.283Z,11.5
2017-10-30T12:23:33.675Z,11.5
2017-10-30T12:24:36.048Z,11.7
2017-10-30T12:25:38.426Z,11.4
2017-10-30T12:26:40.817Z,11.5
2017-10-30T12:27:43.192Z,11.8
2017-10-30T12:28:45.564Z,11.5
2017-10-30T12:29:47.943Z,11.4
2017-10-30T12:30:50.338Z,11.5
2017-10-30T12:31:53.072Z,11.5
2017-10-30T12:32:55.458Z,11.7
2017-10-30T12:33:57.839Z,11.4
2017-10-30T12:35:00.221Z,11.3
2017-10-30T12:36:02.622Z,11
2017-10-30T12:37:04.999Z,11
2017-10-30T12:38:07.371Z,10.9
2017-10-30T12:39:09.758Z,11.3
2017-10-30T12:40:12.136Z,11.2
2017-10-30T12:41:14.525Z,11.2
2017-10-30T12:42:17.251Z,11.3
2017-10-30T12:43:19.643Z,11.6
2017-10-30T12:44:22.022Z,11.8
2017-10-30T12:45:24.407Z,11.9
2017-10-30T12:46:26.786Z,11.9
2017-10-30T12:47:29.170Z,12.1
2017-10-30T12:48:31.555Z,11.9
2017-10-30T12:49:33.939Z,11.9
2017-10-30T12:50:36.318Z,12.1
2017-10-30T12:51:38.696Z,12.1
2017-10-30T12:52:41.077Z,12.1
2017-10-30T12:53:43.461Z,12
2017-10-30T12:54:45.842Z,12.1
2017-10-30T12:55:48.577Z,12
2017-10-30T12:56:50.949Z,12.3
2017-10-30T12:57:53.341Z,12.3
2017-10-30T12:58:55.718Z,12.3
2017-10-30T12:59:58.120Z,11.9
2017-10-30T13:01:00.858Z,11.9
2017-10-30T13:02:03.225Z,12
2017-10-30T13:03:05.625Z,12.1
2017-10-30T13:04:08.396Z,11.9
2017-10-30T13:05:10.785Z,11.7
2017-10-30T13:06:13.514Z,11.4
2017-10-30T13:07:15.894Z,11.4
2017-10-30T13:08:18.272Z,11.2
2017-10-30T13:09:20.665Z,11.2
2017-10-30T13:10:23.038Z,11.1
2017-10-30T13:11:25.433Z,11.3
2017-10-30T13:12:27.811Z,11.3
2017-10-30T13:13:30.188Z,11.3
2017-10-30T13:14:32.588Z,11.3
2017-10-30T13:15:35.519Z,11.5
2017-10-30T13:16:38.590Z,11.5
2017-10-30T13:17:41.360Z,11.3
2017-10-30T13:18:43.743Z,11.4
2017-10-30T13:19:46.243Z,11.4
2017-10-30T13:20:48.630Z,11.4
2017-10-30T13:21:51.100Z,11.4
2017-10-30T13:22:53.481Z,11.4
2017-10-30T13:23:55.992Z,11.3
2017-10-30T13:24:58.728Z,11.1
2017-10-30T13:26:01.129Z,10.9
2017-10-30T13:27:03.511Z,10.9
2017-10-30T13:28:05.902Z,10.9
2017-10-30T13:29:08.285Z,10.9
2017-10-30T13:30:10.665Z,11.1
2017-10-30T13:31:13.043Z,11
2017-10-30T13:32:15.427Z,11
2017-10-30T13:33:17.810Z,10.8
2017-10-30T13:34:20.549Z,10.6
2017-10-30T13:35:23.203Z,10.8
2017-10-30T13:36:25.585Z,10.9
2017-10-30T13:37:27.971Z,10.9
2017-10-30T13:38:30.374Z,10.6
2017-10-30T13:39:32.949Z,10.6
2017-10-30T13:40:35.328Z,10.4
2017-10-30T13:41:37.708Z,10.3
2017-10-30T13:42:40.098Z,10.2
2017-10-30T13:43:42.493Z,10.1
2017-10-30T13:44:44.864Z,10.1
2017-10-30T13:46:32.494Z,10
2017-10-30T13:47:34.918Z,9.8
2017-10-30T13:48:37.347Z,9.9
2017-10-30T13:49:39.780Z,9.8
2017-10-30T13:50:42.201Z,9.8
2017-10-30T13:51:44.661Z,9.8
2017-10-30T13:52:47.088Z,9.7
2017-10-30T13:53:49.825Z,9.7
2017-10-30T13:54:54.037Z,9.6
2017-10-30T13:55:57.824Z,9.6
2017-10-30T13:57:00.629Z,9.5
2017-10-30T13:58:03.067Z,9.5
2017-10-30T13:59:05.555Z,9.4
2017-10-30T14:00:08.752Z,9.4
2017-10-30T14:01:11.772Z,9.4
2017-10-30T14:02:14.382Z,9.2
2017-10-30T14:03:18.420Z,9.2
2017-10-30T14:04:20.842Z,9.2
2017-10-30T14:05:23.287Z,9.1
2017-10-30T14:06:25.731Z,9.1
2017-10-30T14:07:28.292Z,8.9
2017-10-30T14:08:30.715Z,8.8
2017-10-30T14:09:33.287Z,8.8
2017-10-30T14:10:35.703Z,8.8
2017-10-30T14:11:38.129Z,8.8
2017-10-30T14:12:40.913Z,8.8
2017-10-30T14:13:44.043Z,8.8
2017-10-30T14:14:46.471Z,8.8
2017-10-30T14:15:48.898Z,8.8